Tiempo atmosférico en la estación meteorológica de Sigüenza, Guadalajara (1044 m.)



Fecha
DESCASC
Temp. máxima en grados centígrados (hora)
DESCASC
Temp. mínima en grados centígrados (hora)
DESCASC
Temp. media en grados centígrados
DESCASC
Racha de viento máxima en m/sg (hora)
DESCASC
Velocidad máxima media en intervalos de 10 minutos(hora)
DESCASC
Precipitaciones diarias en mm
DESCASC
Precipitaciones de 00:00 a 06:00 en mm
DESCASC
Precipitaciones de 06:00 a 12:00 en mm
DESCASC
Precipitaciones de 12:00 a 18:00 en mm
DESCASC
Precipitaciones de 18:00 a 24:00 en mm
DESCASC
30-11-2020 14.7 (14:40) -3.2 (07:20) 5.7 3.33 (20:50) 2.5 (21:50) 0 0 0 0 0
29-11-2020 11.8 (16:50) -1.5 (-00:0) 5.2 5 (12:30) 3.06 (16:10) 0 0 0 0 0
28-11-2020 9.3 (14:50) 6.1 (00:00) 7.7 8.61 (01:50) 4.17 (01:10) 0 0 0 0 0
27-11-2020 9.9 (12:50) 5.9 (00:00) 7.9 10.83 (06:40) 4.44 (15:30) 0.4 0 0 0.4 0
26-11-2020 10.6 (14:50) 5.3 (00:00) 8 8.89 (14:30) 3.89 (14:40) 0 0 0 0 0
25-11-2020 10.4 (11:40) -4.1 (-00:0) 3.1 9.17 (15:50) 5 (11:20) 0 0 0 0 0
24-11-2020 12.9 (14:00) -5.1 (-00:0) 3.9 6.11 (14:30) 3.33 (14:40) 0 0 0 0 0
23-11-2020 -- (--) -- (--) -- -- (--) -- (--) -- -- -- -- 0
22-11-2020 15.8 (15:20) -5.4 (-00:0) 5.2 4.72 (13:40) 2.78 (13:20) 0 0 0 0 0
21-11-2020 16.9 (15:00) -2.8 (-00:0) 7 5 (14:20) 2.5 (16:20) 0 0 0 0 0
20-11-2020 13.3 (15:50) 0.5 (00:00) 6.9 13.06 (12:10) 5.83 (12:10) 0 0 0 0 0
19-11-2020 17.8 (14:30) 1.6 (00:00) 9.7 11.94 (12:00) 4.17 (11:30) 0 0 0 0 0
18-11-2020 18.7 (16:00) 3 (00:00) 10.9 4.17 (14:40) 3.06 (14:40) 0 0 0 0 0
17-11-2020 18.1 (15:30) 0.1 (00:00) 9.1 6.67 (14:20) 2.78 (14:00) 0 0 0 0 0
16-11-2020 16.8 (15:40) 4.1 (00:00) 10.4 6.39 (12:20) 2.5 (17:00) 2.8 2.4 0.4 0 0
15-11-2020 12.8 (21:10) 9.9 (00:00) 11.3 9.17 (11:50) 4.17 (09:10) 0 0 0 0 0
14-11-2020 11 (13:00) 2.4 (00:00) 6.7 6.39 (21:20) 4.17 (21:20) 0.8 0 0.2 0.6 0
13-11-2020 14.6 (15:40) 2.4 (00:00) 8.5 6.11 (15:40) 3.61 (14:10) 0 0 0 0 0
12-11-2020 15.3 (15:30) 1.9 (00:00) 8.6 3.06 (14:00) 1.67 (08:30) 0 0 0 0 0
11-11-2020 14.9 (14:30) -1.8 (-00:0) 6.5 8.33 (13:10) 4.44 (13:00) 0 0 0 0 0
10-11-2020 14.6 (14:40) -0.2 (00:00) 7.2 4.72 (11:30) 2.22 (14:50) 0 0 0 0 0
09-11-2020 13.7 (15:50) 3 (00:00) 8.3 6.11 (15:00) 3.61 (14:50) 0.6 0 0.6 0 0
08-11-2020 14.2 (14:50) 4.5 (00:00) 9.3 9.17 (15:20) 5 (15:20) 0 0 0 0 0
07-11-2020 12.2 (12:00) 7.4 (00:00) 9.8 10 (12:10) 6.39 (12:20) 16.8 15.6 0.2 1 0
06-11-2020 19.5 (13:30) 5.7 (00:00) 12.6 10.56 (12:30) 4.72 (10:00) 0 0 0 0 0
05-11-2020 11.6 (15:00) 4.6 (00:00) 8.1 10 (06:20) 4.72 (07:00) 5.4 0 0 0.4 5
04-11-2020 7.9 (14:20) 4 (00:00) 6 10.56 (14:00) 4.72 (17:10) 0.2 0 0 0 0.2
03-11-2020 12.5 (10:30) 6.3 (00:00) 9.4 8.89 (16:30) 4.44 (12:50) 5.8 0 3.6 2.2 0
02-11-2020 20.9 (15:30) 2.4 (00:00) 11.6 6.67 (14:50) 3.06 (13:00) 0 0 0 0 0

Gráficas

Temp. máximas Temp. mínimas Temp. medias Precipitaciones Rachas de viento máximas Velocidades máximas media en intervalos de 10 minutos

Datos horarios

Fecha y hora oficial Temperatura (ºC) Velocidad del viento (km/h) Dirección del viento Racha (km/h) Dirección de racha Precipitación (mm) Presión (hPa) Tendencia (hPa) Humedad (%)
2020-12-01 23:00:00 6.7 6 Noroeste 23 Noroeste 0 904.7 -0.8 59
2020-12-01 22:00:00 6.8 8 Noroeste 20 Norte 0 905 -- 61
2020-12-01 21:00:00 4.7 3 Nordeste 7 Norte 0 905.1 -- 75
2020-12-01 20:00:00 5.3 0 Calma 5 Este 0 905.5 -- 72
2020-12-01 19:00:00 6.2 2 Norte 5 Nordeste 0 905.7 -- 66
2020-12-01 18:00:00 8.2 0 Calma 17 Nordeste 0 905.8 -- 58
2020-12-01 17:00:00 10.2 10 Nordeste 22 Nordeste 0 906 -- 48
2020-12-01 16:00:00 11.4 8 Norte 27 Noroeste 0 906.1 -- 42
2020-12-01 15:00:00 12.9 12 Norte 33 Nordeste 0 906.5 -- 37
2020-12-01 14:00:00 12.9 14 Nordeste 33 Nordeste 0 907.1 -- 36
2020-12-01 13:00:00 12.3 15 Norte 38 Norte 0 907.6 -- 35
2020-12-01 12:00:00 11.3 15 Nordeste 35 Norte 0 908.2 -- 37
2020-12-01 11:00:00 6.1 4 Este 16 Norte 0.2 908.6 -- 72
2020-12-01 10:00:00 -1.7 0 Calma 8 Norte 0 908.9 -- 97
2020-12-01 09:00:00 -5.4 3 Nordeste 8 Nordeste 0 909.3 -- 97
2020-12-01 08:00:00 -5.8 3 Nordeste 7 Nordeste 0 909.2 -- 97
2020-12-01 07:00:00 -5.3 4 Nordeste 7 Norte 0 908.8 -- 98
2020-12-01 06:00:00 -4.7 5 Nordeste 9 Norte 0 908.8 -- 97
2020-12-01 05:00:00 -4.2 5 Nordeste 8 Nordeste 0 908.9 -- 95
2020-12-01 04:00:00 -3.4 4 Nordeste 7 Nordeste 0 909.5 -- 97
2020-12-01 03:00:00 -3.1 5 Norte 7 Norte 0 909.8 -- 95
2020-12-01 02:00:00 -2.1 3 Nordeste 8 Norte 0 910.2 -- 96
2020-12-01 01:00:00 -2.5 3 Este 7 Nordeste 0 910.1 -- 94
2020-12-01 00:00:00 -1.6 2 Norte 4 Nordeste 0 910.2 -- 93
2020-11-30 23:00:00 -0.5 2 Norte 12 Norte 0 910.2 -- 92
2020-11-30 22:00:00 1.5 9 Nordeste 12 Norte 0 909.6 -- 94
2020-11-30 21:00:00 2.1 5 Nordeste 12 Nordeste 0 909.5 -- 90
2020-11-30 20:00:00 3.8 6 Nordeste 9 Nordeste 0 909.3 -- 86
2020-11-30 19:00:00 5.3 6 Nordeste 8 Nordeste 0 908.9 -- 80
2020-11-30 18:00:00 8.3 2 Este 5 Este 0 908.5 -- 71
2020-11-30 17:00:00 11.7 3 Nordeste 6 Norte 0 908.3 -- 60
2020-11-30 16:00:00 13.5 4 Noroeste 9 Noroeste 0 907.9 -- 53
2020-11-30 15:00:00 13.8 3 Oeste 9 Noroeste 0 907.9 -- 52
2020-11-30 14:00:00 13.9 2 Sur 9 Nordeste 0 908.3 -- 50
2020-11-30 13:00:00 12.1 3 Este 7 Nordeste 0 908.4 -- 61
2020-11-30 12:00:00 8.8 2 Este 5 Este 0 909 -- 77
2020-11-30 11:00:00 5.7 3 Nordeste 7 Nordeste 0 909.1 -- 89
2020-11-30 10:00:00 1.7 3 Nordeste 9 Nordeste 0 908.8 -- 97
2020-11-30 09:00:00 -2.2 5 Nordeste 10 Norte 0 908.5 -- 97
2020-11-30 08:00:00 -3.1 5 Nordeste 9 Norte 0 908.2 -- 96
2020-11-30 07:00:00 -3.1 5 Nordeste 8 Nordeste 0 907.8 -- 95
2020-11-30 06:00:00 -2.8 4 Nordeste 9 Norte 0 907.2 -- 96
2020-11-30 05:00:00 -2.9 3 Nordeste 9 Norte 0 907.2 -- 96
2020-11-30 04:00:00 -2.8 4 Nordeste 10 Nordeste 0 907.3 -- 95
2020-11-30 03:00:00 -2.6 3 Este 8 Norte 0 907.1 -- 96
2020-11-30 02:00:00 -2.3 3 Nordeste 8 Norte 0 906.9 -- 96
2020-11-30 01:00:00 -1.6 3 Nordeste 9 Norte 0 906.7 -- 96
2020-11-30 00:00:00 -1.4 4 Nordeste 8 Nordeste 0 906.3 -- 96
2020-11-29 23:00:00 -0.9 4 Nordeste 10 Nordeste 0 906.1 -- 95
2020-11-29 22:00:00 -0.5 3 Nordeste 8 Norte 0 905.8 -- 93
2020-11-29 21:00:00 0.4 4 Nordeste 7 Nordeste 0 905.4 -- 92
2020-11-29 20:00:00 1.7 2 Nordeste 6 Norte 0 905 -- 87
2020-11-29 19:00:00 3.6 3 Norte 6 Norte 0 904.5 -- 83
2020-11-29 18:00:00 7 0 Calma 10 Oeste 0 904 -- 71
2020-11-29 17:00:00 11 5 Sudoeste 18 Sur 0 903.3 -- 56
2020-11-29 16:00:00 11.1 9 Sudoeste 17 Sur 0 902.9 -- 56
2020-11-29 15:00:00 9.7 6 Sudoeste 15 Sudoeste 0 902.9 -- 67
2020-11-29 14:00:00 9.6 10 Sudoeste 17 Sudoeste 0 902.9 -- 65
2020-11-29 13:00:00 10.3 8 Sudoeste 18 Sur 0 903 -- 69
2020-11-29 12:00:00 9.7 5 Sur 13 Sudoeste 0 903.4 -- 71
2020-11-29 11:00:00 5.1 2 Este 6 Este 0 903.1 -- 98
2020-11-29 10:00:00 3.2 3 Este 7 Nordeste 0 902.8 -- 98
2020-11-29 09:00:00 2.8 3 Nordeste 8 Nordeste 0 902.2 -- 98
2020-11-29 08:00:00 2.1 2 Norte 4 Este 0 901.4 -- 96
2020-11-29 07:00:00 1.9 0 Calma 3 Este 0 900.7 -- 92
2020-11-29 06:00:00 3.9 0 Calma 9 Nordeste 0 900.1 -- 92
2020-11-29 05:00:00 5 3 Norte 8 Sudoeste 0 899.6 -- 93
2020-11-29 04:00:00 5.6 0 Calma 12 Sur 0 899.6 -- 93
2020-11-29 03:00:00 5.6 6 Sudeste 15 Sudeste 0 899.4 -- 93
2020-11-29 02:00:00 5.7 2 Oeste 9 Sudoeste 0 898.9 -- 92
2020-11-29 01:00:00 6.4 3 Sudoeste 12 Sudoeste 0 898.7 -- 91
2020-11-29 00:00:00 6.5 0 Calma 3 Sur 0 898.5 -- 93
2020-11-28 23:00:00 6.8 0 Calma 5 Sudoeste 0 898 -- 93
2020-11-28 22:00:00 6.9 4 Sudoeste 9 Sudoeste 0 897.8 -- 91
2020-11-28 21:00:00 6.9 5 Sudoeste 15 Sur 0 897.2 -- 91
2020-11-28 20:00:00 7.1 4 Sudoeste 13 Sudoeste 0 896.5 -- 90
2020-11-28 19:00:00 7.4 5 Sudoeste 17 Sudoeste 0 896 -- 87
2020-11-28 18:00:00 8.1 0 Calma 6 Nordeste 0 895 -- 80
2020-11-28 17:00:00 8.7 3 Noroeste 9 Oeste 0 894.3 -- 74
2020-11-28 16:00:00 9.1 0 Calma 6 Norte 0 894.1 -- 72
2020-11-28 15:00:00 9.2 3 Norte 9 Norte 0 893.7 -- 68
2020-11-28 14:00:00 8.6 5 Nordeste 14 Este 0 893.6 -- 74
2020-11-28 13:00:00 8.7 4 Este 13 Nordeste 0 893.4 -- 77
2020-11-28 12:00:00 8.4 4 Este 13 Nordeste 0 893.5 -- 79
2020-11-28 11:00:00 7.7 6 Nordeste 17 Nordeste 0 894.2 -- 82
2020-11-28 10:00:00 7.1 5 Nordeste 13 Nordeste 0 894 -- 89
2020-11-28 09:00:00 6.4 0 Calma 8 Nordeste 0 893.5 -- 94
2020-11-28 08:00:00 6.2 4 Nordeste 9 Nordeste 0 893.1 -- 95
2020-11-28 07:00:00 6.4 4 Nordeste 12 Nordeste 0 892.9 -- 93
2020-11-28 06:00:00 6.5 6 Nordeste 14 Nordeste 0 892.6 -- 92
2020-11-28 05:00:00 6.7 4 Nordeste 15 Nordeste 0 893 -- 90
2020-11-28 04:00:00 6.8 6 Nordeste 14 Nordeste 0 892.9 -- 87
2020-11-28 03:00:00 7.2 8 Nordeste 26 Nordeste 0 893.5 -- 82
2020-11-28 02:00:00 7 14 Nordeste 31 Nordeste 0 893.3 -- 87
2020-11-28 01:00:00 6.9 13 Nordeste 28 Nordeste 0 893.1 -- 86
2020-11-28 00:00:00 6.6 12 Nordeste 26 Norte 0 893.5 -- 87
2020-11-27 23:00:00 5.9 5 Nordeste 21 Nordeste 0 894.2 -- 88
2020-11-27 22:00:00 6.6 8 Nordeste 23 Nordeste 0 894.9 -- 84
2020-11-27 21:00:00 7.5 9 Nordeste 24 Nordeste 0 895.2 -- 87
2020-11-27 20:00:00 7.6 7 Nordeste 18 Este 0 895.3 -- 87
2020-11-27 19:00:00 8.2 9 Nordeste 23 Nordeste 0 895.3 -- 87
2020-11-27 18:00:00 8.7 10 Nordeste 21 Nordeste 0 895.4 -- 84
2020-11-27 17:00:00 9 12 Nordeste 32 Nordeste 0 895.1 -- 79
2020-11-27 16:00:00 9.4 13 Nordeste 36 Nordeste 0 895.3 -- 78
2020-11-27 15:00:00 9.4 13 Nordeste 27 Nordeste 0 895.6 -- 82
2020-11-27 14:00:00 8.8 9 Nordeste 26 Norte 0.4 896.4 -- 88
2020-11-27 13:00:00 9.8 13 Nordeste 34 Nordeste 0 897.2 -- 77
2020-11-27 12:00:00 9.7 13 Nordeste 31 Nordeste 0 897.8 -- 80
2020-11-27 11:00:00 8.8 13 Nordeste 35 Nordeste 0 898.1 -- 83
2020-11-27 10:00:00 8.6 11 Nordeste 29 Nordeste 0 898.3 -- 84
2020-11-27 09:00:00 8.6 11 Nordeste 28 Nordeste 0 898.4 -- 86
2020-11-27 08:00:00 8.7 14 Nordeste 30 Nordeste 0 898.3 -- 86
2020-11-27 07:00:00 8.8 13 Nordeste 39 Nordeste 0 897.8 -- 84
2020-11-27 06:00:00 8.4 9 Nordeste 20 Nordeste 0 898 -- 84
2020-11-27 05:00:00 7.8 8 Nordeste 21 Nordeste 0 898.2 -- 87
2020-11-27 04:00:00 8.2 14 Nordeste 30 Nordeste 0 898.8 -- 84
2020-11-27 03:00:00 8.2 9 Nordeste 24 Nordeste 0 898.8 -- 85
2020-11-27 02:00:00 8.5 11 Nordeste 28 Nordeste 0 899.3 -- 83
2020-11-27 01:00:00 7.5 10 Nordeste 17 Nordeste 0 899.5 -- 89
2020-11-27 00:00:00 7.1 8 Nordeste 18 Nordeste 0 899.8 -- 91
2020-11-26 23:00:00 6.9 8 Nordeste 19 Nordeste 0 899.6 -- 91
2020-11-26 22:00:00 7.4 11 Nordeste 19 Nordeste 0 899.5 -- 90
2020-11-26 21:00:00 7.5 8 Nordeste 20 Nordeste 0 899.3 -- 89
2020-11-26 20:00:00 7.7 9 Nordeste 21 Nordeste 0 899.2 -- 88
2020-11-26 19:00:00 7.9 10 Nordeste 29 Nordeste 0 898.9 -- 90
2020-11-26 18:00:00 8.4 13 Nordeste 29 Nordeste 0 898.6 -- 88
2020-11-26 17:00:00 8.8 9 Nordeste 24 Nordeste 0 898.6 -- 86
2020-11-26 16:00:00 9.6 12 Nordeste 24 Nordeste 0 898.3 -- 81
2020-11-26 15:00:00 10.6 10 Nordeste 32 Nordeste 0 898.6 -- 73
2020-11-26 14:00:00 9.4 12 Nordeste 26 Nordeste 0 898.9 -- 79
2020-11-26 13:00:00 9.9 10 Nordeste 31 Este 0 899.1 -- 76
2020-11-26 12:00:00 9.1 11 Nordeste 24 Norte 0 899.9 -- 74
2020-11-26 11:00:00 7.1 9 Nordeste 18 Nordeste 0 900.2 -- 83
2020-11-26 10:00:00 6.6 5 Nordeste 12 Nordeste 0 899.9 -- 84
2020-11-26 09:00:00 6.2 4 Nordeste 12 Nordeste 0 899.9 -- 83
2020-11-26 08:00:00 6.6 7 Nordeste 14 Nordeste 0 899.3 -- 76
2020-11-26 07:00:00 6.1 6 Nordeste 17 Norte 0 898.8 -- 77
2020-11-26 06:00:00 5.7 6 Norte 14 Norte 0 898.8 -- 79
2020-11-26 05:00:00 5.7 6 Nordeste 18 Nordeste 0 898.8 -- 80
2020-11-26 04:00:00 5.8 5 Norte 13 Este 0 899 -- 81
2020-11-26 03:00:00 5.6 4 Nordeste 8 Nordeste 0 899.3 -- 85
2020-11-26 02:00:00 5.7 5 Nordeste 10 Nordeste 0 899.5 -- 84
2020-11-26 01:00:00 6.2 4 Nordeste 12 Norte 0 899.8 -- 81
2020-11-26 00:00:00 6.5 6 Norte 14 Nordeste 0 899.9 -- 79
2020-11-25 23:00:00 7.3 6 Nordeste 11 Nordeste 0 899.7 -- 76
2020-11-25 22:00:00 7.3 3 Nordeste 13 Este 0 899.6 -- 77
2020-11-25 21:00:00 6.8 2 Este 8 Sur 0 899.5 -- 79
2020-11-25 20:00:00 7.7 3 Norte 8 Este 0 899.5 -- 76
2020-11-25 19:00:00 8.6 0 Calma 15 Sudeste 0 899.6 -- 75
2020-11-25 18:00:00 9.1 5 Sur 17 Sur 0 899.7 -- 74
2020-11-25 17:00:00 9.4 7 Sur 26 Sur 0 899.6 -- 73
2020-11-25 16:00:00 9.8 10 Sur 33 Sudoeste 0 899.5 -- 69
2020-11-25 15:00:00 10 13 Sur 25 Sur 0 899.9 -- 69
2020-11-25 14:00:00 8.7 13 Sur 28 Sur 0 900.6 -- 73
2020-11-25 13:00:00 9 14 Sur 28 Sur 0 901.3 -- 70
2020-11-25 12:00:00 9 17 Sur 32 Sudoeste 0 901.8 -- 70
2020-11-25 11:00:00 9 13 Sudoeste 26 Sudoeste 0 901.9 -- 71
2020-11-25 10:00:00 5.7 5 Sur 9 Sur 0 902.1 -- 81
2020-11-25 09:00:00 0.9 0 Calma 5 Noroeste 0 902.2 -- 94
2020-11-25 08:00:00 1.3 0 Calma 5 Norte 0 902.3 -- 94
2020-11-25 07:00:00 1.7 2 Norte 4 Norte 0 902.3 -- 95
2020-11-25 06:00:00 0.7 0 Calma 6 Norte 0 902.5 -- 96
2020-11-25 05:00:00 -0.6 2 Norte 4 Norte 0 902.8 -- 96
2020-11-25 04:00:00 -1.9 3 Norte 5 Norte 0 903 -- 96
2020-11-25 03:00:00 -4 0 Calma 5 Nordeste 0 903.4 -- 94
2020-11-25 02:00:00 -3.5 0 Calma 4 Nordeste 0 903.7 -- 93
2020-11-25 01:00:00 -2.9 0 Calma 5 Nordeste 0 904.3 -- 92
2020-11-25 00:00:00 -2.1 3 Norte 5 Norte 0 904.7 -- 92
2020-11-24 23:00:00 -1.5 2 Norte 5 Norte 0 905.1 -- 91
2020-11-24 22:00:00 -0.6 3 Norte 5 Norte 0 905.3 -- 90
2020-11-24 21:00:00 0.1 3 Norte 5 Norte 0 905.5 -- 87
2020-11-24 20:00:00 1.7 0 Calma 5 Nordeste 0 905.6 -- 80
2020-11-24 19:00:00 4.3 0 Calma 5 Sudoeste 0 905.6 -- 71
2020-11-24 18:00:00 8.5 4 Sudoeste 13 Sudoeste 0 905.5 -- 60
2020-11-24 17:00:00 11.4 6 Sudoeste 17 Sudoeste 0 905.4 -- 50
2020-11-24 16:00:00 12.7 9 Sudoeste 19 Sur 0 905.5 -- 46
2020-11-24 15:00:00 12.3 10 Sudoeste 22 Sudoeste 0 906 -- 44
2020-11-24 14:00:00 12.9 8 Sudoeste 19 Sudoeste 0 906.7 -- 40
2020-11-24 13:00:00 11.9 9 Sur 15 Sur 0 907.4 -- 53
2020-11-24 12:00:00 10.1 7 Sudoeste 15 Sur 0 908.6 -- 59
2020-11-24 11:00:00 5.9 6 Sur 11 Sur 0 909.3 -- 80
2020-11-24 10:00:00 0.4 2 Nordeste 6 Nordeste 0 909.5 -- 94
2020-11-24 09:00:00 -4 2 Nordeste 8 Norte 0 909.5 -- 95
2020-11-24 08:00:00 -4.9 4 Norte 7 Nordeste 0 909.2 -- 95
2020-11-24 07:00:00 -4.5 4 Norte 7 Norte 0 909.1 -- 95
2020-11-24 06:00:00 -4.2 2 Nordeste 7 Norte 0 909.1 -- 94
2020-11-24 05:00:00 -3.7 3 Nordeste 8 Nordeste 0 909.3 -- 94
2020-11-24 04:00:00 -3.2 3 Nordeste 6 Norte 0 909.8 -- 94
2020-11-24 03:00:00 -2.7 2 Nordeste 6 Norte 0 910.3 -- 93
2020-11-24 02:00:00 -2.3 3 Nordeste 6 Nordeste 0 910.5 -- 94
2020-11-24 01:00:00 -1.9 4 Nordeste 7 Norte 0 911.1 -- 93
2020-11-24 00:00:00 -1.5 4 Nordeste 6 Nordeste 0 911.3 -- 92
2020-11-23 23:00:00 -0.7 3 Nordeste 7 Nordeste 0 911.6 -- 90
2020-11-23 22:00:00 0.1 5 Nordeste 6 Nordeste 0 911.7 -- 87
2020-11-23 21:00:00 1.2 4 Nordeste 6 Norte 0 911.8 -- 84
2020-11-23 20:00:00 3 2 Nordeste 6 Norte 0 911.8 -- 79
2020-11-23 19:00:00 5.5 3 Nordeste 8 Norte 0 911.5 -- 69
2020-11-23 18:00:00 10 0 Calma 6 Sudoeste 0 911 -- 54
2020-11-23 17:00:00 15.7 5 Sudoeste 10 Sudoeste 0 910.6 -- 35
2020-11-23 16:00:00 16.9 5 Sur 13 Sudoeste 0 910.7 -- 31
2020-11-23 15:00:00 16.6 6 Sur -- -- -- 910.8 -- 32
2020-11-23 14:00:00 -- -- -- -- -- -- -- -- --
2020-11-23 13:00:00 -- -- -- -- -- -- -- -- --
2020-11-23 12:00:00 -- -- -- -- -- -- -- -- --
2020-11-23 11:00:00 -- -- -- -- -- -- -- -- --
2020-11-23 10:00:00 -- -- -- -- -- -- -- -- --
2020-11-23 09:00:00 -- -- -- -- -- -- -- -- --
2020-11-23 08:00:00 -- -- -- -- -- -- -- -- --
2020-11-23 07:00:00 -- -- -- -- -- -- -- -- --
2020-11-23 06:00:00 -- -- -- -- -- -- -- -- --
2020-11-23 05:00:00 -- -- -- -- -- -- -- -- --
2020-11-23 04:00:00 -- -- -- -- -- -- -- -- --
2020-11-23 03:00:00 -- -- -- -- -- -- -- -- --
2020-11-23 02:00:00 -- -- -- -- -- -- -- -- --
2020-11-23 01:00:00 -- -- -- -- -- -- -- -- --
2020-11-23 00:00:00 -2.2 4 Nordeste 8 Nordeste 0 913.2 -- 92
2020-11-22 23:00:00 -1.4 3 Nordeste 8 Nordeste 0 913.2 -- 92
2020-11-22 22:00:00 -0.7 5 Nordeste 7 Nordeste 0 913.1 -- 89
2020-11-22 21:00:00 0.7 4 Nordeste 7 Norte 0 913.1 -- 88
2020-11-22 20:00:00 2.1 4 Nordeste 6 Nordeste 0 912.7 -- 82
2020-11-22 19:00:00 4.7 3 Nordeste 6 Nordeste 0 912.3 -- 75
2020-11-22 18:00:00 9.2 5 Sudoeste 8 Sudoeste 0 911.7 -- 57
2020-11-22 17:00:00 14.2 6 Sudoeste 13 Sur 0 911.4 -- 40
2020-11-22 16:00:00 15.4 8 Sudoeste 15 Sudoeste 0 911.3 -- 36
2020-11-22 15:00:00 15.7 7 Sur 17 Sudoeste 0 911.5 -- 36
2020-11-22 14:00:00 15.1 7 Sudoeste 17 Sur 0 912 -- 41
2020-11-22 13:00:00 13.6 7 Sur 13 Sur 0 912.5 -- 48
2020-11-22 12:00:00 11.5 9 Sur 12 Sur 0 913.3 -- 55
2020-11-22 11:00:00 6.2 2 Sudeste 5 Nordeste 0 913.8 -- 77
2020-11-22 10:00:00 0.6 3 Nordeste 10 Nordeste 0 913.9 -- 93
2020-11-22 09:00:00 -3.6 5 Nordeste 8 Nordeste 0 913.7 -- 95
2020-11-22 08:00:00 -4.8 6 Norte 9 Norte 0 913.6 -- 96
2020-11-22 07:00:00 -5.2 3 Nordeste 7 Nordeste 0 913.4 -- 93
2020-11-22 06:00:00 -5 2 Nordeste 7 Nordeste 0 913.2 -- 93
2020-11-22 05:00:00 -4.8 3 Nordeste 7 Nordeste 0 913.4 -- 93
2020-11-22 04:00:00 -4.6 2 Nordeste 6 Nordeste 0 913.4 -- 92
2020-11-22 03:00:00 -4.2 3 Nordeste 5 Nordeste 0 913.5 -- 91
2020-11-22 02:00:00 -3.8 3 Nordeste 6 Norte 0 913.6 -- 91
2020-11-22 01:00:00 -3.3 3 Nordeste 7 Norte 0 913.7 -- 90
2020-11-22 00:00:00 -2.8 4 Nordeste 7 Nordeste 0 913.7 -- 89
2020-11-21 23:00:00 -2.2 3 Nordeste 8 Norte 0 913.8 -- 87
2020-11-21 22:00:00 -1.4 5 Nordeste 7 Nordeste 0 913.7 -- 86
2020-11-21 21:00:00 0 4 Nordeste 8 Nordeste 0 913.6 -- 81
2020-11-21 20:00:00 1.7 2 Nordeste 8 Norte 0 913.4 -- 75
2020-11-21 19:00:00 4.5 4 Nordeste 6 Nordeste 0 913 -- 67
2020-11-21 18:00:00 8.8 2 Norte 10 Sudoeste 0 912.5 -- 51
2020-11-21 17:00:00 14.2 4 Sudoeste 15 Sudoeste 0 912.1 -- 32
2020-11-21 16:00:00 16.2 8 Sudoeste 15 Sudoeste 0 911.8 -- 26
2020-11-21 15:00:00 16.4 3 Oeste 18 Sur 0 911.8 -- 23
2020-11-21 14:00:00 16.5 4 Sudeste 14 Sur 0 912.1 -- 21
2020-11-21 13:00:00 15.7 4 Sudoeste 11 Sur 0 912.4 -- 22
2020-11-21 12:00:00 13.5 3 Este 10 Nordeste 0 913 -- 23
2020-11-21 11:00:00 9.2 4 Nordeste 8 Nordeste 0 913.1 -- 30
2020-11-21 10:00:00 2.4 2 Sur 6 Norte 0 913.1 -- 66
2020-11-21 09:00:00 -1.7 0 Calma 5 Sur 0 912.9 -- 84
2020-11-21 08:00:00 -2.1 2 Nordeste 13 Norte 0 912.6 -- 83
2020-11-21 07:00:00 -2.6 3 Nordeste 8 Norte 0 912.5 -- 85
2020-11-21 06:00:00 -1.5 5 Norte 10 Norte 0 912.4 -- 80
2020-11-21 05:00:00 -0.8 0 Calma 8 Este 0 912.4 -- 77
2020-11-21 04:00:00 -0.1 3 Nordeste 8 Este 0 912.5 -- 73
2020-11-21 03:00:00 0.3 5 Nordeste 9 Norte 0 912.7 -- 72
2020-11-21 02:00:00 0.8 0 Calma 8 Norte 0 913 -- 69
2020-11-21 01:00:00 2 3 Oeste 10 Oeste 0 913.6 -- 64
2020-11-21 00:00:00 3.2 0 Calma 14 Nordeste 0 914 -- 60
2020-11-20 23:00:00 6.9 9 Nordeste 28 Nordeste 0 913.9 -- 40
2020-11-20 22:00:00 5.9 9 Nordeste 21 Nordeste 0 913.9 -- 51
2020-11-20 21:00:00 5.3 3 Nordeste 32 Norte 0 913.9 -- 58
2020-11-20 20:00:00 6.6 10 Nordeste 23 Nordeste 0 913.6 -- 51
2020-11-20 19:00:00 8.3 10 Nordeste 23 Nordeste 0 913.5 -- 43
2020-11-20 18:00:00 9.1 6 Norte 35 Nordeste 0 913.7 -- 39
2020-11-20 17:00:00 11.9 13 Nordeste 34 Norte 0 913.4 -- 33
2020-11-20 16:00:00 13.2 17 Norte 39 Nordeste 0 913.8 -- 29
2020-11-20 15:00:00 13 13 Norte 36 Norte 0 914.1 -- 31
2020-11-20 14:00:00 12 16 Nordeste 37 Norte 0 914.9 -- 36
2020-11-20 13:00:00 11.3 14 Norte 47 Nordeste 0 915.7 -- 39
2020-11-20 12:00:00 9.4 18 Nordeste 38 Nordeste 0 916.6 -- 47
2020-11-20 11:00:00 8.3 14 Nordeste 32 Nordeste 0 916.7 -- 54
2020-11-20 10:00:00 5.7 12 Nordeste 26 Norte 0 916.7 -- 66
2020-11-20 09:00:00 3.2 6 Nordeste 17 Norte 0 916.4 -- 81
2020-11-20 08:00:00 1.5 6 Nordeste 15 Nordeste 0 916.4 -- 94
2020-11-20 07:00:00 1.1 2 Sudeste 8 Este 0 916.2 -- 92
2020-11-20 06:00:00 1.8 2 Sudoeste 19 Norte 0 916.4 -- 87
2020-11-20 05:00:00 2.8 4 Nordeste 14 Nordeste 0 916.6 -- 87
2020-11-20 04:00:00 3.4 3 Este 15 Nordeste 0 916.7 -- 85
2020-11-20 03:00:00 3.8 3 Nordeste 18 Nordeste 0 917.2 -- 84
2020-11-20 02:00:00 3.4 3 Sudeste 10 Este 0 917.7 -- 90
2020-11-20 01:00:00 4.9 5 Nordeste 10 Este 0 917.7 -- 90
2020-11-20 00:00:00 5.4 4 Este 16 Nordeste 0 918 -- 89
2020-11-19 23:00:00 6.4 6 Este 15 Nordeste 0 918.3 -- 89
2020-11-19 22:00:00 7.1 5 Este 12 Este 0 918.3 -- 89
2020-11-19 21:00:00 8.7 6 Este 24 Norte 0 918.2 -- 80
2020-11-19 20:00:00 10.1 8 Nordeste 18 Nordeste 0 918.1 -- 76
2020-11-19 19:00:00 11.8 7 Nordeste 18 Nordeste 0 918 -- 74
2020-11-19 18:00:00 13.7 5 Nordeste 23 Nordeste 0 917.4 -- 66
2020-11-19 17:00:00 15.9 11 Nordeste 24 Nordeste 0 917.1 -- 58
2020-11-19 16:00:00 16.9 9 Nordeste 26 Nordeste 0 916.5 -- 54
2020-11-19 15:00:00 17.4 12 Nordeste 28 Norte 0 916.9 -- 53
2020-11-19 14:00:00 17.5 10 Nordeste 28 Nordeste 0 917.2 -- 53
2020-11-19 13:00:00 16.7 12 Nordeste 41 Norte 0 917.4 -- 57
2020-11-19 12:00:00 15.1 15 Nordeste 43 Nordeste 0 918.5 -- 64
2020-11-19 11:00:00 14.3 13 Nordeste 30 Nordeste 0 918.4 -- 67
2020-11-19 10:00:00 12.1 12 Nordeste 23 Norte 0 918 -- 74
2020-11-19 09:00:00 10.3 9 Nordeste 22 Nordeste 0 917.6 -- 79
2020-11-19 08:00:00 7.3 3 Norte 18 Nordeste 0 916.8 -- 86
2020-11-19 07:00:00 3.1 0 Calma 6 Este 0 915.9 -- 97
2020-11-19 06:00:00 2 0 Calma 6 Nordeste 0 915.5 -- 98
2020-11-19 05:00:00 1.6 0 Calma 7 Nordeste 0 915.5 -- 97
2020-11-19 04:00:00 1.7 0 Calma 5 Norte 0 915.3 -- 97
2020-11-19 03:00:00 2.1 0 Calma 9 Nordeste 0 915.2 -- 97
2020-11-19 02:00:00 2.6 3 Nordeste 7 Nordeste 0 915.3 -- 97
2020-11-19 01:00:00 2.8 3 Nordeste 7 Norte 0 915.4 -- 96
2020-11-19 00:00:00 3.4 3 Nordeste 7 Nordeste 0 915.6 -- 96
2020-11-18 23:00:00 4.1 5 Nordeste 7 Nordeste 0 915.4 -- 95
2020-11-18 22:00:00 5.2 4 Nordeste 7 Nordeste 0 915.1 -- 94
2020-11-18 21:00:00 6 4 Nordeste 7 Nordeste 0 914.6 -- 93
2020-11-18 20:00:00 7.4 2 Nordeste 6 Nordeste 0 914.3 -- 89
2020-11-18 19:00:00 9.4 3 Nordeste 6 Nordeste 0 913.8 -- 84
2020-11-18 18:00:00 12.8 0 Calma 4 Sudeste 0 913.3 -- 76
2020-11-18 17:00:00 17.5 4 Sudoeste 11 Sur 0 912.9 -- 58
2020-11-18 16:00:00 18.7 7 Sur 14 Sur 0 913 -- 53
2020-11-18 15:00:00 17.3 9 Sudoeste 15 Sudoeste 0 913 -- 61
2020-11-18 14:00:00 14.8 8 Sur 13 Sur 0 913.5 -- 85
2020-11-18 13:00:00 11.4 8 Sur 12 Sudoeste 0 914.1 -- 97
2020-11-18 12:00:00 9.7 6 Sudoeste 12 Sur 0 914.7 -- 97
2020-11-18 11:00:00 8.1 0 Calma 6 Nordeste 0 914.8 -- 98
2020-11-18 10:00:00 7.1 3 Norte 9 Nordeste 0 914.6 -- 98
2020-11-18 09:00:00 6.7 3 Nordeste 9 Nordeste 0 914.3 -- 98
2020-11-18 08:00:00 6.2 3 Nordeste 7 Norte 0 913.8 -- 98
2020-11-18 07:00:00 5.8 2 Este 6 Este 0 913.6 -- 98
2020-11-18 06:00:00 6.5 2 Este 7 Este 0 913.6 -- 98
2020-11-18 05:00:00 6.8 3 Nordeste 4 Norte 0 913.3 -- 98
2020-11-18 04:00:00 6.2 3 Norte 4 Norte 0 913.3 -- 98
2020-11-18 03:00:00 5.5 2 Nordeste 5 Norte 0 913.5 -- 98
2020-11-18 02:00:00 4.5 3 Norte 5 Norte 0 913.6 -- 98
2020-11-18 01:00:00 3.3 3 Nordeste 6 Nordeste 0 913.9 -- 98
2020-11-18 00:00:00 3 3 Nordeste 8 Nordeste 0 914 -- 96
2020-11-17 23:00:00 3.6 2 Norte 5 Norte 0 914 -- 95
2020-11-17 22:00:00 4.5 0 Calma 5 Norte 0 913.8 -- 93
2020-11-17 21:00:00 5.6 3 Norte 6 Norte 0 913.4 -- 91
2020-11-17 20:00:00 7.2 2 Nordeste 7 Sudoeste 0 913.2 -- 87
2020-11-17 19:00:00 9.9 3 Sur 8 Sur 0 912.7 -- 81
2020-11-17 18:00:00 13.2 5 Sur 13 Oeste 0 912.1 -- 72
2020-11-17 17:00:00 17.1 5 Sudoeste 14 Oeste 0 912.1 -- 58
2020-11-17 16:00:00 18 6 Sudoeste 15 Sudoeste 0 911.9 -- 56
2020-11-17 15:00:00 17.8 8 Sur 24 Sur 0 912 -- 56
2020-11-17 14:00:00 17.2 10 Sudoeste 18 Sur 0 912.3 -- 59
2020-11-17 13:00:00 16.5 9 Sur 20 Sur 0 912.8 -- 65
2020-11-17 12:00:00 14.8 5 Sudoeste 11 Sudoeste 0 913.1 -- 68
2020-11-17 11:00:00 9.8 4 Sur 8 Sudoeste 0 913.4 -- 91
2020-11-17 10:00:00 5 3 Nordeste 5 Nordeste 0 913.4 -- 99
2020-11-17 09:00:00 1.2 3 Nordeste 8 Nordeste 0 913.2 -- 99
2020-11-17 08:00:00 0.1 5 Nordeste 9 Nordeste 0 912.7 -- 99
2020-11-17 07:00:00 0.5 5 Nordeste 9 Nordeste 0 912.4 -- 98
2020-11-17 06:00:00 0.9 3 Nordeste 10 Nordeste 0 912.5 -- 98
2020-11-17 05:00:00 1.2 3 Norte 8 Nordeste 0 912.3 -- 97
2020-11-17 04:00:00 1.8 2 Norte 6 Nordeste 0 912 -- 97
2020-11-17 03:00:00 2.6 2 Este 9 Norte 0 912.3 -- 97
2020-11-17 02:00:00 2.9 4 Nordeste 5 Nordeste 0 912.3 -- 96
2020-11-17 01:00:00 3.6 3 Norte 6 Nordeste 0 912.6 -- 96
2020-11-17 00:00:00 4.1 3 Este 9 Norte 0 912.5 -- 96
2020-11-16 23:00:00 4.6 0 Calma 8 Nordeste 0 912.8 -- 95
2020-11-16 22:00:00 5.6 2 Nordeste 9 Norte 0 912.6 -- 93
2020-11-16 21:00:00 6.5 2 Este 5 Este 0 912.1 -- 91
2020-11-16 20:00:00 7.9 2 Nordeste 6 Norte 0 911.8 -- 88
2020-11-16 19:00:00 9.9 0 Calma 5 Este 0 911.3 -- 83
2020-11-16 18:00:00 12.3 0 Calma 15 Noroeste 0 910.8 -- 75
2020-11-16 17:00:00 14.9 9 Norte 17 Norte 0 910.3 -- 64
2020-11-16 16:00:00 16.3 3 Oeste 15 Oeste 0 909.9 -- 61
2020-11-16 15:00:00 16 6 Noroeste 17 Noroeste 0 909.8 -- 60
2020-11-16 14:00:00 15 6 Norte 19 Norte 0 910.3 -- 64
2020-11-16 13:00:00 14.7 6 Noroeste 23 Norte 0 910.5 -- 63
2020-11-16 12:00:00 12.9 6 Norte 18 Norte 0 911 -- 76
2020-11-16 11:00:00 13.2 7 Norte 20 Norte 0 910.5 -- 78
2020-11-16 10:00:00 11.9 2 Este 10 Norte 0 910.4 -- 88
2020-11-16 09:00:00 10.7 5 Noroeste 12 Norte 0 909.6 -- 90
2020-11-16 08:00:00 10.9 4 Noroeste 14 Noroeste 0 908.9 -- 90
2020-11-16 07:00:00 11.3 0 Calma 10 Norte 0.4 908.4 -- 93
2020-11-16 06:00:00 11.8 3 Noroeste 12 Noroeste 1 908.6 -- 94
2020-11-16 05:00:00 11.9 2 Sur 9 Oeste 1.2 907.7 -- 94
2020-11-16 04:00:00 12.1 3 Sudoeste 16 Sudoeste 0.2 908.1 -- 93
2020-11-16 03:00:00 12.2 5 Sudoeste 13 Sudoeste 0 907.8 -- 93
2020-11-16 02:00:00 12.5 6 Sudoeste 12 Sur 0 908 -- 93
2020-11-16 01:00:00 12.6 6 Sudoeste 21 Sudoeste 0 908.3 -- 94
2020-11-16 00:00:00 12.6 9 Sudoeste 27 Sudoeste 0 908.5 -- 94
2020-11-15 23:00:00 12.7 8 Sudoeste 27 Sur 0 908.3 -- 92
2020-11-15 22:00:00 12.8 10 Sudoeste 26 Sudoeste 0 908.2 -- 91
2020-11-15 21:00:00 12.7 12 Sudoeste 28 Sudoeste 0 907.7 -- 92
2020-11-15 20:00:00 12.4 9 Sudoeste 23 Sudoeste 0 907.5 -- 94
2020-11-15 19:00:00 12.1 13 Sudoeste 27 Sudoeste 0 907.3 -- 95
2020-11-15 18:00:00 11.9 10 Sudoeste 28 Sur 0 907.3 -- 96
2020-11-15 17:00:00 11.8 9 Sudoeste 22 Sudoeste 0 907.1 -- 95
2020-11-15 16:00:00 12 9 Sudoeste 30 Sudoeste 0 906.9 -- 94
2020-11-15 15:00:00 12.1 9 Sudoeste 28 Sudoeste 0 906.8 -- 93
2020-11-15 14:00:00 12.2 11 Sudoeste 30 Sudoeste 0 906.9 -- 92
2020-11-15 13:00:00 11.7 7 Sudoeste 31 Sur 0 907.4 -- 94
2020-11-15 12:00:00 11.5 13 Sudoeste 33 Sudoeste 0 907.6 -- 95
2020-11-15 11:00:00 10.8 12 Sudoeste 29 Sudoeste 0 907.8 -- 95
2020-11-15 10:00:00 10.6 11 Sudoeste 29 Sudoeste 0 907.5 -- 94
2020-11-15 09:00:00 10.3 14 Sudoeste 27 Sudoeste 0 907.1 -- 94
2020-11-15 08:00:00 10 11 Sudoeste 28 Sudoeste 0 907 -- 94
2020-11-15 07:00:00 9.9 6 Oeste 23 Sudoeste 0 906.8 -- 94
2020-11-15 06:00:00 10.1 9 Sudoeste 25 Sudoeste 0 907.1 -- 92
2020-11-15 05:00:00 10 5 Sudoeste 22 Sudoeste 0 906.4 -- 93
2020-11-15 04:00:00 10.1 7 Sudoeste 16 Sudoeste 0 906.7 -- 94
2020-11-15 03:00:00 10.1 8 Sudoeste 20 Sur 0 906.9 -- 94
2020-11-15 02:00:00 10.2 6 Sudoeste 18 Sudoeste 0 907.2 -- 94
2020-11-15 01:00:00 10.1 8 Sudoeste 19 Sudoeste 0 907.6 -- 94
2020-11-15 00:00:00 10.1 4 Sudoeste 12 Sur 0 907.6 -- 93
2020-11-14 23:00:00 10 7 Sudoeste 17 Sur 0 907.8 -- 94
2020-11-14 22:00:00 10 9 Sudoeste 23 Sudoeste 0 907.6 -- 94
2020-11-14 21:00:00 10.2 9 Sudoeste 18 Sudoeste 0 907.5 -- 93
2020-11-14 20:00:00 10.3 8 Sudoeste 15 Sur 0 907.4 -- 95
2020-11-14 19:00:00 10.4 3 Sudoeste 12 Sudoeste 0 906.8 -- 95
2020-11-14 18:00:00 10.4 5 Sudoeste 10 Sudoeste 0.2 906.5 -- 94
2020-11-14 17:00:00 10.7 3 Sudoeste 13 Sur 0 906.3 -- 93
2020-11-14 16:00:00 10.8 7 Sur 16 Sudoeste 0 906.3 -- 92
2020-11-14 15:00:00 10.8 7 Sur 13 Sudoeste 0.4 906.3 -- 93
2020-11-14 14:00:00 10.6 6 Sudoeste 19 Sudoeste 0 906.7 -- 91
2020-11-14 13:00:00 11 6 Sudoeste 15 Oeste 0 907 -- 88
2020-11-14 12:00:00 10.6 4 Sudoeste 13 Sudoeste 0.2 907.5 -- 89
2020-11-14 11:00:00 10 5 Sudoeste 16 Sudoeste 0 907.6 -- 88
2020-11-14 10:00:00 8.3 6 Sur 11 Sur 0 907.4 -- 96
2020-11-14 09:00:00 5.1 0 Calma 3 Norte 0 907.2 -- 97
2020-11-14 08:00:00 3.1 0 Calma 4 Nordeste 0 906.8 -- 97
2020-11-14 07:00:00 2.5 0 Calma 4 Norte 0 906.6 -- 96
2020-11-14 06:00:00 3.2 2 Nordeste 6 Nordeste 0 906.5 -- 96
2020-11-14 05:00:00 3.6 3 Norte 8 Norte 0 906.4 -- 96
2020-11-14 04:00:00 3.3 2 Nordeste 8 Norte 0 906.6 -- 95
2020-11-14 03:00:00 3.8 2 Nordeste 5 Norte 0 906.8 -- 92
2020-11-14 02:00:00 5.1 0 Calma 4 Norte 0 907.1 -- 93
2020-11-14 01:00:00 5.6 2 Norte 4 Norte 0 907.4 -- 93
2020-11-14 00:00:00 5.8 0 Calma 3 Norte 0 907.7 -- 92
2020-11-13 23:00:00 6.1 2 Nordeste 4 Norte 0 907.8 -- 91
2020-11-13 22:00:00 6.6 0 Calma 5 Norte 0 907.5 -- 88
2020-11-13 21:00:00 7 0 Calma 4 Norte 0 907.3 -- 88
2020-11-13 20:00:00 7.4 0 Calma 5 Norte 0 907.3 -- 86
2020-11-13 19:00:00 8.1 0 Calma 6 Sudoeste 0 906.9 -- 82
2020-11-13 18:00:00 11.1 2 Sudoeste 14 Sudoeste 0 906.5 -- 72
2020-11-13 17:00:00 12.7 4 Sur 15 Sudoeste 0 906.5 -- 65
2020-11-13 16:00:00 14 8 Sudoeste 22 Sudoeste 0 906 -- 60
2020-11-13 15:00:00 14 12 Sur 21 Sudoeste 0 906.4 -- 61
2020-11-13 14:00:00 13.5 9 Sudoeste 20 Sudoeste 0 906.8 -- 65
2020-11-13 13:00:00 12.9 9 Sur 17 Sudoeste 0 907.1 -- 69
2020-11-13 12:00:00 11.3 6 Sudoeste 15 Sudoeste 0 907.9 -- 75
2020-11-13 11:00:00 9.8 8 Sur 15 Sudoeste 0 907.9 -- 82
2020-11-13 10:00:00 5 2 Nordeste 5 Norte 0 908 -- 96
2020-11-13 09:00:00 3.3 2 Nordeste 6 Norte 0 907.7 -- 97
2020-11-13 08:00:00 2.4 2 Nordeste 4 Norte 0 907.1 -- 96
2020-11-13 07:00:00 2.6 4 Nordeste 5 Nordeste 0 906.8 -- 96
2020-11-13 06:00:00 3.1 2 Norte 5 Sudoeste 0 907 -- 96
2020-11-13 05:00:00 3.4 0 Calma 6 Nordeste 0 906.8 -- 96
2020-11-13 04:00:00 3.8 0 Calma 7 Norte 0 906.9 -- 95
2020-11-13 03:00:00 4 0 Calma 5 Norte 0 907 -- 95
2020-11-13 02:00:00 4.3 2 Nordeste 4 Nordeste 0 907.3 -- 94
2020-11-13 01:00:00 4.6 2 Norte 5 Nordeste 0 907.6 -- 95
2020-11-13 00:00:00 4.5 0 Calma 5 Norte 0 907.8 -- 93
2020-11-12 23:00:00 4.8 2 Norte 8 Nordeste 0 907.9 -- 93
2020-11-12 22:00:00 4.7 2 Nordeste 5 Nordeste 0 907.7 -- 92
2020-11-12 21:00:00 4.8 3 Nordeste 6 Nordeste 0 907.6 -- 90
2020-11-12 20:00:00 6.5 3 Nordeste 8 Nordeste 0 907.6 -- 86
2020-11-12 19:00:00 8.3 2 Este 6 Este 0 907.4 -- 82
2020-11-12 18:00:00 10.9 2 Este 5 Este 0 907 -- 75
2020-11-12 17:00:00 13.5 0 Calma 4 Este 0 906.9 -- 64
2020-11-12 16:00:00 15 0 Calma 7 Noroeste 0 907 -- 48
2020-11-12 15:00:00 15 2 Nordeste 9 Nordeste 0 907.3 -- 48
2020-11-12 14:00:00 14.4 5 Nordeste 11 Nordeste 0 907.8 -- 56
2020-11-12 13:00:00 13.8 2 Nordeste 7 Sur 0 908.5 -- 57
2020-11-12 12:00:00 11.6 5 Sur 10 Sur 0 909.5 -- 74
2020-11-12 11:00:00 8.6 0 Calma 5 Este 0 909.8 -- 87
2020-11-12 10:00:00 5.6 3 Nordeste 7 Norte 0 909.6 -- 96
2020-11-12 09:00:00 3.5 5 Norte 9 Nordeste 0 909.6 -- 97
2020-11-12 08:00:00 2.5 3 Nordeste 6 Nordeste 0 909.5 -- 97
2020-11-12 07:00:00 2.4 3 Nordeste 7 Nordeste 0 909.3 -- 96
2020-11-12 06:00:00 2.5 2 Norte 7 Norte 0 909.4 -- 96
2020-11-12 05:00:00 2.5 4 Nordeste 8 Norte 0 909.5 -- 97
2020-11-12 04:00:00 2.1 3 Norte 6 Este 0 909.7 -- 96
2020-11-12 03:00:00 2.2 3 Este 8 Nordeste 0 910 -- 96
2020-11-12 02:00:00 2.4 0 Calma 8 Nordeste 0 910.4 -- 95
2020-11-12 01:00:00 2.7 0 Calma 6 Nordeste 0 910.8 -- 94
2020-11-12 00:00:00 3.3 3 Nordeste 10 Norte 0 910.6 -- 94
2020-11-11 23:00:00 3.7 3 Este 7 Norte 0 910 -- 92
2020-11-11 22:00:00 4.1 3 Nordeste 6 Norte 0 910.3 -- 90
2020-11-11 21:00:00 5.1 2 Nordeste 6 Norte 0 909.9 -- 87
2020-11-11 20:00:00 5.8 4 Norte 6 Nordeste 0 910 -- 84
2020-11-11 19:00:00 8.2 0 Calma 13 Sudoeste 0 909.7 -- 74
2020-11-11 18:00:00 10.4 8 Sur 20 Sudoeste 0 909.3 -- 64
2020-11-11 17:00:00 13.2 6 Sudoeste 23 Sudoeste 0 909.3 -- 54
2020-11-11 16:00:00 14.4 12 Sudoeste 28 Oeste 0 909.1 -- 53
2020-11-11 15:00:00 14.8 12 Sudoeste 30 Sudoeste 0 908.9 -- 53
2020-11-11 14:00:00 14.2 9 Sudoeste 30 Sur 0 909.3 -- 61
2020-11-11 13:00:00 13.7 16 Sur 28 Sur 0 910.1 -- 64
2020-11-11 12:00:00 12.4 12 Sudoeste 25 Sudoeste 0 910.7 -- 69
2020-11-11 11:00:00 10.3 9 Sudoeste 19 Sudoeste 0 910.9 -- 81
2020-11-11 10:00:00 3.1 0 Calma 6 Norte 0 911.4 -- 98
2020-11-11 09:00:00 -0.8 2 Nordeste 6 Nordeste 0 911.8 -- 98
2020-11-11 08:00:00 -1.7 3 Nordeste 5 Nordeste 0 911.5 -- 97
2020-11-11 07:00:00 -1.4 2 Nordeste 4 Norte 0 911.7 -- 97
2020-11-11 06:00:00 -1.2 0 Calma 7 Norte 0 911.6 -- 97
2020-11-11 05:00:00 -0.9 3 Nordeste 8 Norte 0 911.6 -- 97
2020-11-11 04:00:00 -0.5 3 Nordeste 8 Norte 0 912.1 -- 98
2020-11-11 03:00:00 -0.1 3 Nordeste 9 Norte 0 912.7 -- 97
2020-11-11 02:00:00 0.1 3 Nordeste 8 Nordeste 0 913.1 -- 97
2020-11-11 01:00:00 0.5 4 Nordeste 7 Nordeste 0 913.1 -- 96
2020-11-11 00:00:00 1.2 5 Nordeste 9 Nordeste 0 913.1 -- 96
2020-11-10 23:00:00 2.1 3 Nordeste 6 Este 0 913.3 -- 95
2020-11-10 22:00:00 3.2 6 Nordeste 8 Nordeste 0 913 -- 94
2020-11-10 21:00:00 3.9 3 Nordeste 9 Nordeste 0 912.5 -- 92
2020-11-10 20:00:00 5.2 3 Nordeste 6 Norte 0 912.6 -- 89
2020-11-10 19:00:00 7.4 4 Norte 6 Norte 0 912.5 -- 83
2020-11-10 18:00:00 10.4 2 Este 8 Noroeste 0 912.1 -- 70
2020-11-10 17:00:00 13.5 4 Noroeste 12 Noroeste 0 912 -- 56
2020-11-10 16:00:00 14.4 4 Norte 12 Noroeste 0 911.7 -- 52
2020-11-10 15:00:00 13.4 6 Norte 17 Norte 0 911.9 -- 59
2020-11-10 14:00:00 13 2 Sur 13 Norte 0 912.3 -- 62
2020-11-10 13:00:00 12.7 3 Este 17 Nordeste 0 912.7 -- 62
2020-11-10 12:00:00 12.5 4 Noroeste 17 Norte 0 913 -- 69
2020-11-10 11:00:00 9.6 6 Norte 14 Nordeste 0 913 -- 86
2020-11-10 10:00:00 6.6 0 Calma 5 Norte 0 913.1 -- 98
2020-11-10 09:00:00 1.6 3 Sudoeste 5 Norte 0 912.9 -- 99
2020-11-10 08:00:00 -0.1 4 Nordeste 6 Nordeste 0 912.3 -- 100
2020-11-10 07:00:00 0.3 2 Nordeste 5 Nordeste 0 911.8 -- 99
2020-11-10 06:00:00 0.9 2 Nordeste 8 Nordeste 0 911.7 -- 99
2020-11-10 05:00:00 0.9 2 Nordeste 8 Norte 0 911.5 -- 99
2020-11-10 04:00:00 1.3 3 Norte 6 Nordeste 0 911.3 -- 98
2020-11-10 03:00:00 1.7 4 Nordeste 6 Norte 0 911.4 -- 97
2020-11-10 02:00:00 2.3 2 Nordeste 7 Nordeste 0 911.3 -- 96
2020-11-10 01:00:00 2.9 2 Este 9 Norte 0 911.1 -- 96
2020-11-10 00:00:00 4 0 Calma 5 Nordeste 0 911.3 -- 95
2020-11-09 23:00:00 5.3 3 Nordeste 7 Nordeste 0 911.1 -- 94
2020-11-09 22:00:00 6.3 3 Nordeste 4 Norte 0 911 -- 92
2020-11-09 21:00:00 8.3 0 Calma 4 Este 0 910.5 -- 89
2020-11-09 20:00:00 9.6 0 Calma 5 Norte 0 910.3 -- 86
2020-11-09 19:00:00 10.3 0 Calma 5 Oeste 0 909.8 -- 84
2020-11-09 18:00:00 11.1 0 Calma 9 Sudoeste 0 909.1 -- 78
2020-11-09 17:00:00 12.4 4 Sudoeste 14 Sudoeste 0 908.8 -- 70
2020-11-09 16:00:00 13 10 Sur 21 Sur 0 908.5 -- 67
2020-11-09 15:00:00 13.1 12 Sudoeste 22 Sudoeste 0 908.5 -- 69
2020-11-09 14:00:00 12 7 Sudoeste 17 Sudoeste 0 908.6 -- 74
2020-11-09 13:00:00 10.8 10 Sudoeste 21 Sudoeste 0 909 -- 83
2020-11-09 12:00:00 10.9 12 Sur 19 Sudoeste 0 909.3 -- 85
2020-11-09 11:00:00 9.3 9 Sudoeste 18 Sur 0 909.4 -- 92
2020-11-09 10:00:00 8.8 8 Sudoeste 13 Sudoeste 0 909 -- 95
2020-11-09 09:00:00 7.8 2 Noroeste 12 Nordeste 0 908.4 -- 97
2020-11-09 08:00:00 7.1 3 Sudeste 8 Sudoeste 0.6 907.9 -- 97
2020-11-09 07:00:00 5.9 3 Sur 8 Sudoeste 0 907.9 -- 97
2020-11-09 06:00:00 4.2 3 Sur 5 Sudoeste 0 907.4 -- 97
2020-11-09 05:00:00 3.3 0 Calma 4 Norte 0 907.3 -- 97
2020-11-09 04:00:00 3 2 Norte 9 Norte 0 907.1 -- 95
2020-11-09 03:00:00 3.9 2 Norte 9 Sur 0 907.4 -- 95
2020-11-09 02:00:00 5.1 2 Sudoeste 12 Sudoeste 0 907.4 -- 95
2020-11-09 01:00:00 5.6 0 Calma 6 Norte 0 907.8 -- 96
2020-11-09 00:00:00 4.9 2 Norte 5 Nordeste 0 908.1 -- 95
2020-11-08 23:00:00 5.2 0 Calma 4 Noroeste 0 908.2 -- 92
2020-11-08 22:00:00 6.4 0 Calma 4 Noroeste 0 908.1 -- 91
2020-11-08 21:00:00 7.9 4 Norte 6 Norte 0 908 -- 88
2020-11-08 20:00:00 9.3 0 Calma 7 Sur 0 908 -- 84
2020-11-08 19:00:00 10.2 4 Sur 13 Sudoeste 0 908.1 -- 80
2020-11-08 18:00:00 11 6 Sudoeste 24 Sudoeste 0 907.9 -- 74
2020-11-08 17:00:00 12.6 9 Sudoeste 24 Sudoeste 0 907.8 -- 65
2020-11-08 16:00:00 13.6 12 Sudoeste 33 Sudoeste 0 907.9 -- 63
2020-11-08 15:00:00 13.8 15 Sudoeste 31 Sur 0 907.7 -- 61
2020-11-08 14:00:00 12.4 13 Sudoeste 32 Sur 0 908.1 -- 66
2020-11-08 13:00:00 11.1 9 Sudoeste 28 Sudoeste 0 908.6 -- 77
2020-11-08 12:00:00 11 14 Sur 28 Sur 0 909.4 -- 81
2020-11-08 11:00:00 10.7 9 Sudoeste 27 Sudoeste 0 909.5 -- 82
2020-11-08 10:00:00 9.7 12 Sudoeste 23 Sudoeste 0 909.5 -- 85
2020-11-08 09:00:00 7.2 10 Sur 19 Sudoeste 0 909.2 -- 95
2020-11-08 08:00:00 7 10 Sudoeste 19 Sudoeste 0 908.8 -- 94
2020-11-08 07:00:00 7.9 9 Sudoeste 15 Sur 0 908.6 -- 92
2020-11-08 06:00:00 8.4 8 Sudoeste 15 Sur 0 908.8 -- 91
2020-11-08 05:00:00 8.2 5 Sur 12 Sudoeste 0 909 -- 93
2020-11-08 04:00:00 7.9 7 Sur 15 Sudoeste 0 909.1 -- 94
2020-11-08 03:00:00 7.8 8 Sudoeste 16 Sudoeste 0 909.3 -- 95
2020-11-08 02:00:00 7.6 6 Sudoeste 14 Sur 0 909.5 -- 92
2020-11-08 01:00:00 7.6 3 Sur 9 Sudoeste 0 909.8 -- 94
2020-11-08 00:00:00 7.4 3 Noroeste 9 Sur 0 909.7 -- 93
2020-11-07 23:00:00 8.5 4 Sur 11 Sudoeste 0 909.5 -- 90
2020-11-07 22:00:00 9.1 6 Sudoeste 16 Sur 0 909.2 -- 89
2020-11-07 21:00:00 9.8 8 Sudoeste 23 Sudoeste 0 908.5 -- 87
2020-11-07 20:00:00 10.3 10 Sudoeste 19 Sudoeste 0 908 -- 87
2020-11-07 19:00:00 10.4 10 Sudoeste 22 Sur 0 907.4 -- 89
2020-11-07 18:00:00 10.2 2 Sur 16 Sudoeste 0 906.7 -- 89
2020-11-07 17:00:00 10.7 9 Sudoeste 22 Sudoeste 0.2 906.3 -- 87
2020-11-07 16:00:00 10.3 7 Sudoeste 31 Sur 0.6 906 -- 90
2020-11-07 15:00:00 10.4 10 Sudoeste 36 Sur 0.2 905.4 -- 87
2020-11-07 14:00:00 11.4 12 Sudoeste 35 Sudoeste 0 904.7 -- 83
2020-11-07 13:00:00 11.2 20 Sur 36 Sudoeste 0 904.5 -- 80
2020-11-07 12:00:00 12 21 Sur 34 Sur 0 904.3 -- 80
2020-11-07 11:00:00 10.5 14 Sur 28 Sur 0 903.8 -- 88
2020-11-07 10:00:00 10.2 14 Sur 27 Sur 0 903 -- 90
2020-11-07 09:00:00 10 3 Sur 24 Sudeste 0.2 902 -- 90
2020-11-07 08:00:00 9.9 10 Sur 27 Sur 0 901.8 -- 90
2020-11-07 07:00:00 9 2 Oeste 8 Norte 0 901.7 -- 94
2020-11-07 06:00:00 9.3 6 Norte 11 Nordeste 1.2 901.1 -- 93
2020-11-07 05:00:00 9.8 2 Nordeste 24 Oeste 6 902.3 -- 92
2020-11-07 04:00:00 10.1 6 Oeste 19 Sudoeste 6.4 902.2 -- 92
2020-11-07 03:00:00 10.5 4 Norte 9 Nordeste 1.8 902 -- 91
2020-11-07 02:00:00 10.9 4 Nordeste 14 Norte 0.2 902.8 -- 82
2020-11-07 01:00:00 10.4 6 Nordeste 12 Norte 0 902.7 -- 81
2020-11-07 00:00:00 11.5 6 Norte 10 Norte 0 903.4 -- 76
2020-11-06 23:00:00 13.5 2 Sudoeste 16 Sur 0 903.5 -- 68
2020-11-06 22:00:00 14 2 Oeste 17 Sur 0 903.9 -- 67
2020-11-06 21:00:00 13.4 3 Nordeste 22 Norte 0 903.4 -- 68
2020-11-06 20:00:00 13.6 3 Nordeste 10 Nordeste 0 903.6 -- 76
2020-11-06 19:00:00 14.9 4 Noroeste 15 Este 0 903.9 -- 65
2020-11-06 18:00:00 16 6 Nordeste 17 Este 0 902.9 -- 58
2020-11-06 17:00:00 17.1 6 Este 32 Este 0 902.7 -- 54
2020-11-06 16:00:00 18.3 6 Este 27 Sudeste 0 903 -- 53
2020-11-06 15:00:00 19 9 Sudeste 25 Este 0 903.5 -- 48
2020-11-06 14:00:00 18.7 8 Este 32 Este 0 904.1 -- 55
2020-11-06 13:00:00 18.8 11 Este 38 Este 0 904.5 -- 55
2020-11-06 12:00:00 16.3 11 Nordeste 32 Este 0 905.6 -- 67
2020-11-06 11:00:00 12.4 11 Nordeste 28 Nordeste 0 906.4 -0.4 83
2020-11-06 10:00:00 10.7 17 Nordeste 31 Norte 0 906.4 -- 89
2020-11-06 09:00:00 8.7 13 Nordeste 24 Norte 0 906.6 -- 92
2020-11-06 08:00:00 7.4 9 Nordeste 18 Nordeste 0 906.8 -- 94
2020-11-06 07:00:00 5.9 4 Nordeste 9 Nordeste 0 906.8 -- 96
2020-11-06 06:00:00 6.2 4 Nordeste 8 Nordeste 0 906.9 -- 94
2020-11-06 05:00:00 7.6 5 Nordeste 12 Nordeste 0 906.9 -- 92
2020-11-06 04:00:00 8.3 5 Nordeste 18 Norte 0 906.5 -- 92
2020-11-06 03:00:00 7.8 10 Nordeste 18 Nordeste 0 906.8 -- 94
2020-11-06 02:00:00 7.6 6 Nordeste 11 Norte 0 907.1 -- 93
2020-11-06 01:00:00 9.1 7 Norte 12 Norte 0 907.1 -- 89
2020-11-06 00:00:00 9.3 6 Norte 17 Nordeste 0 907 -- 89
2020-11-05 23:00:00 9.6 6 Nordeste 19 Este 0 906.9 -- 87
2020-11-05 22:00:00 10.2 10 Nordeste 32 Nordeste 0 906.8 -- 86
2020-11-05 21:00:00 9.1 10 Nordeste 21 Norte 1.8 906.7 -- 94
2020-11-05 20:00:00 8.8 9 Nordeste 23 Nordeste 2.4 906.9 -- 94
2020-11-05 19:00:00 8.9 12 Nordeste 25 Norte 0.8 907.1 -- 93
2020-11-05 18:00:00 9.4 11 Nordeste 29 Nordeste 0.2 906.9 -- 91
2020-11-05 17:00:00 9.6 14 Nordeste 31 Nordeste 0 906.7 -- 90
2020-11-05 16:00:00 10.1 13 Nordeste 28 Nordeste 0.2 906.8 -- 90
2020-11-05 15:00:00 11.6 8 Nordeste 28 Nordeste 0 907.2 -- 86
2020-11-05 14:00:00 10.6 15 Nordeste 32 Nordeste 0 907.3 -- 83
2020-11-05 13:00:00 9.7 14 Nordeste 32 Nordeste 0 907.9 -- 86
2020-11-05 12:00:00 9.6 12 Nordeste 36 Nordeste 0 908.6 -- 85
2020-11-05 11:00:00 10.1 14 Nordeste 31 Nordeste 0 908.7 -- 82
2020-11-05 10:00:00 8.3 11 Nordeste 35 Nordeste 0 908.6 -- 87
2020-11-05 09:00:00 6.6 15 Nordeste 30 Nordeste 0 908.2 -- 92
2020-11-05 08:00:00 6 13 Nordeste 34 Nordeste 0 907.7 -- 93
2020-11-05 07:00:00 5.5 17 Nordeste 36 Nordeste 0 907.3 -- 96
2020-11-05 06:00:00 5.4 14 Nordeste 34 Nordeste 0 907.7 -- 97
2020-11-05 05:00:00 5.1 13 Nordeste 34 Nordeste 0 907.7 -- 98
2020-11-05 04:00:00 5.2 17 Nordeste 33 Norte 0 907.8 -- 96
2020-11-05 03:00:00 5.7 14 Nordeste 29 Nordeste 0 907.6 -- 93
2020-11-05 02:00:00 5.2 12 Nordeste 31 Nordeste 0 907.8 -- 96
2020-11-05 01:00:00 5.1 13 Nordeste 28 Nordeste 0 907.9 -- 95
2020-11-05 00:00:00 4.6 15 Nordeste 31 Nordeste 0 907.9 -- 96
2020-11-04 23:00:00 4.4 17 Nordeste 35 Nordeste 0.2 907.9 -- 95
2020-11-04 22:00:00 4.6 12 Nordeste 30 Nordeste 0 907.3 -- 94
2020-11-04 21:00:00 4.6 12 Nordeste 32 Nordeste 0 906.9 -- 95
2020-11-04 20:00:00 4.7 9 Nordeste 31 Nordeste 0 906.6 -- 93
2020-11-04 19:00:00 4.8 10 Nordeste 31 Norte 0 906.1 -- 92
2020-11-04 18:00:00 5 10 Nordeste 31 Nordeste 0 905.8 -- 90
2020-11-04 17:00:00 5.5 17 Nordeste 29 Nordeste 0 905.6 -- 86
2020-11-04 16:00:00 6.6 10 Nordeste 29 Nordeste 0 905.5 -- 81
2020-11-04 15:00:00 7.4 13 Nordeste 35 Nordeste 0 905.4 -- 76
2020-11-04 14:00:00 7.2 15 Nordeste 38 Nordeste 0 905.8 -- 75
2020-11-04 13:00:00 7.1 12 Nordeste 33 Nordeste 0 906.4 -- 78
2020-11-04 12:00:00 6.8 11 Nordeste 31 Nordeste 0 907.2 -- 78
2020-11-04 11:00:00 5.5 10 Nordeste 26 Nordeste 0 907.6 0.6 86
2020-11-04 10:00:00 5.1 11 Nordeste 27 Nordeste 0 907.6 -- 79
2020-11-04 09:00:00 4.4 9 Nordeste 23 Nordeste 0 907.3 -- 81
2020-11-04 08:00:00 4 8 Nordeste 23 Nordeste 0 907 -- 82
2020-11-04 07:00:00 4.3 7 Nordeste 23 Nordeste 0 907.3 -- 80
2020-11-04 06:00:00 4.5 9 Nordeste 24 Nordeste 0 907.6 -- 81
2020-11-04 05:00:00 4.5 7 Nordeste 21 Nordeste 0 908.2 -- 83
2020-11-04 04:00:00 5 7 Nordeste 17 Norte 0 908.6 -- 86
2020-11-04 03:00:00 5.2 6 Nordeste 20 Nordeste 0 909.2 -- 86
2020-11-04 02:00:00 5.8 5 Nordeste 17 Nordeste 0 910 -- 84
2020-11-04 01:00:00 6.1 8 Nordeste 21 Nordeste 0 911 -- 83
2020-11-04 00:00:00 6.3 8 Nordeste 27 Nordeste 0 911.5 -- 83
2020-11-03 23:00:00 6.8 8 Nordeste 25 Nordeste 0 911.8 -- 82
2020-11-03 22:00:00 7.1 8 Nordeste 27 Nordeste 0 912.3 -- 80
2020-11-03 21:00:00 7.7 9 Nordeste 25 Nordeste 0 912.4 -- 84
2020-11-03 20:00:00 7.9 9 Nordeste 28 Nordeste 0 912.5 -- 85
2020-11-03 19:00:00 7.7 9 Nordeste 27 Nordeste 0 912.6 -- 87
2020-11-03 18:00:00 7.8 8 Nordeste 29 Nordeste 0 912.5 -- 87
2020-11-03 17:00:00 7.9 12 Nordeste 32 Nordeste 0.4 912.2 -- 89
2020-11-03 16:00:00 8.7 11 Nordeste 30 Nordeste 0 912.2 -- 86
2020-11-03 15:00:00 9 9 Nordeste 31 Nordeste 0 912.1 -- 89
2020-11-03 14:00:00 9.4 11 Nordeste 26 Nordeste 0.8 911.9 -- 91
2020-11-03 13:00:00 10.2 10 Nordeste 28 Nordeste 1 912 -- 92
2020-11-03 12:00:00 11.1 10 Nordeste 21 Nordeste 0 912.1 -- 91
2020-11-03 11:00:00 12 7 Nordeste 17 Nordeste 0 912 -- 91
2020-11-03 10:00:00 12.1 2 Nordeste 10 Nordeste 2 911.7 -- 95
2020-11-03 09:00:00 11.4 4 Norte 6 Este 1.6 911.5 -- 95
2020-11-03 08:00:00 10.2 2 Nordeste 6 Norte 0 910.8 -- 93
2020-11-03 07:00:00 9.2 4 Norte 7 Norte 0 910.3 -- 94
2020-11-03 06:00:00 8.8 4 Nordeste 7 Norte 0 910.1 -- 94
2020-11-03 05:00:00 8.5 4 Norte 8 Norte 0 910 -- 93
2020-11-03 04:00:00 8.4 3 Nordeste 6 Noroeste 0 910.1 -- 93
2020-11-03 03:00:00 8.2 3 Nordeste 6 Nordeste 0 910.3 -- 92
2020-11-03 02:00:00 8.3 6 Norte 9 Nordeste 0 910.1 -- 93
2020-11-03 01:00:00 7.7 4 Nordeste 7 Nordeste 0 910.1 -- 93
2020-11-03 00:00:00 7.7 3 Nordeste 8 Norte 0 910.4 -- 92
2020-11-02 23:00:00 8.9 4 Nordeste 9 Norte 0 910.6 -- 90
2020-11-02 22:00:00 9.5 2 Norte 7 Norte 0 910.6 -- 87
2020-11-02 21:00:00 10.1 3 Norte 8 Norte 0 910.6 -- 84
2020-11-02 20:00:00 11.3 2 Este 7 Norte 0 910.4 -- 80
2020-11-02 19:00:00 14.2 0 Calma 6 Sudoeste 0 909.8 -- 69
2020-11-02 18:00:00 17.3 0 Calma 9 Sudoeste 0 909 -- 60
2020-11-02 17:00:00 19.1 3 Sudoeste 16 Sur 0 908.8 -- 52
2020-11-02 16:00:00 20.7 10 Sur 18 Sudoeste 0 908.8 -- 44
2020-11-02 15:00:00 20.4 10 Sudoeste 24 Sudoeste 0 909 -- 44
2020-11-02 14:00:00 19.4 10 Sudoeste 19 Sur 0 909.6 -- 46
2020-11-02 13:00:00 19.1 11 Sur 18 Sur 0 910.3 -- 42
2020-11-02 12:00:00 17.8 8 Sur 14 Sur 0 910.9 -- 49
2020-11-02 11:00:00 14.6 8 Sur 12 Sur 0 910.9 -- 67
2020-11-02 10:00:00 9.4 4 Nordeste 8 Nordeste 0 911 -- 88
2020-11-02 09:00:00 6.3 2 Nordeste 8 Norte 0 910.8 -- 97
2020-11-02 08:00:00 2.7 4 Nordeste 6 Norte 0 910.4 -- 97
2020-11-02 07:00:00 2.8 3 Norte 7 Nordeste 0 910.1 -- 96
2020-11-02 06:00:00 2.9 3 Nordeste 6 Norte 0 910.2 -- 96
2020-11-02 05:00:00 3.3 4 Nordeste 8 Nordeste 0 910.3 -- 95
2020-11-02 04:00:00 3.7 0 Calma 8 Nordeste 0 910.4 -- 95
2020-11-02 03:00:00 4.1 3 Norte 6 Nordeste 0 910.5 -- 95
2020-11-02 02:00:00 4.5 3 Nordeste 6 Norte 0 910.6 -- 93
2020-11-02 01:00:00 5 3 Nordeste 5 Nordeste 0 911 -- 93
2020-11-02 00:00:00 5.8 3 Nordeste 7 Nordeste 0 911.2 -- 92